• Join FlightAware (Why Join?)
  • Login
  • US Flag 
12:42PM EDT


 

Airport Tracker/Info


-or-


 

Live Flight TrackerFlight Track Log ✈ N1926A ✈ 23-Apr-2013 ✈ KJKA - 41A

Flight Track Log - Related Links

Times and Time Zones

All times are in EDT time to prevent confusion due to time zone crossing. See the N1926A flight status page for this flight to view local times or setup timezone preferences in your user account.

Time Position Orientation Groundspeed Altitude Reporting Facility
EDT Latitude Longitude Course Direction KTS MPH feet Rate Location/Type
04:26PM 30.3200 -87.6447 North 191 220 1,400  Level Jacksonville Center
04:27PM 30.3700 -87.6425 North 212 244 2,500 1,920 Climbing Jacksonville Center
04:28PM 30.4161 -87.6350 North 157 181 4,900 2,400 Climbing Jacksonville Center
04:29PM 30.4617 -87.6517 342° North 159 183 7,400 1,680 Climbing Jacksonville Center
04:31PM 30.5125 -87.5700 54° Northeast 231 266 10,000 840 Climbing Jacksonville Center
04:32PM 30.5278 -87.4936 77° East 250 288 10,000  Level Jacksonville Center
04:33PM 30.5556 -87.4225 66° East 251 289 10,000  Level Jacksonville Center
04:34PM 30.5867 -87.3636 58° Northeast 246 283 10,000 180 Level Jacksonville Center
04:35PM 30.6183 -87.2953 62° Northeast 262 302 10,400 660 Climbing Jacksonville Center
04:36PM 30.6500 -87.2292 61° Northeast 256 295 11,400 900 Climbing Jacksonville Center
04:37PM 30.6772 -87.1628 64° Northeast 238 274 12,200 840 Climbing Jacksonville Center
04:38PM 30.6983 -87.0886 72° East 231 266 13,100 840 Climbing Jacksonville Center
04:39PM 30.7175 -87.0147 73° East 231 266 13,900 720 Climbing Jacksonville Center
04:40PM 30.7367 -86.9383 74° East 231 266 14,600 540 Climbing Jacksonville Center
04:41PM 30.7600 -86.8594 71° East 244 281 15,000 180 Climbing Jacksonville Center
04:42PM 30.7939 -86.7786 64° Northeast 256 295 15,000  Level Jacksonville Center
04:43PM 30.8236 -86.6928 68° East 268 308 15,000  Level Jacksonville Center
04:44PM 30.8614 -86.6194 59° Northeast 268 308 15,000  Level Jacksonville Center
04:45PM 30.9331 -86.5931 18° North 237 273 15,000  Level Jacksonville Center
04:46PM 30.9986 -86.5617 22° Northeast 249 287 15,000  Level Jacksonville Center
04:47PM 31.0642 -86.5353 19° North 263 303 15,000  Level Jacksonville Center
04:48PM 31.1319 -86.5039 22° Northeast 263 303 15,000  Level Jacksonville Center
04:49PM 31.2014 -86.4772 18° North 263 303 15,000  Level Jacksonville Center
04:50PM 31.2711 -86.4483 20° North 263 303 15,000  Level Jacksonville Center
04:51PM 31.3431 -86.4172 20° North 263 303 15,000  Level Jacksonville Center
04:53PM 31.4767 -86.3569 21° North 266 306 15,000  Level Atlanta Center
04:54PM 31.5439 -86.3269 21° North 266 306 15,000  Level Atlanta Center
04:56PM 31.6808 -86.2619 22° Northeast 266 306 15,000 -540 Level Atlanta Center
04:57PM 31.7522 -86.2297 21° North 266 306 13,500 -1,560 Descending Atlanta Center
04:58PM 31.8322 -86.1972 19° North 278 320 11,900 -1,260 Descending Atlanta Center
04:59PM 31.9036 -86.1622 23° Northeast 283 326 11,000 -480 Descending Atlanta Center
05:00PM 31.9731 -86.1297 22° Northeast 276 318 11,000 -300 Level Atlanta Center
05:01PM 32.0406 -86.0969 22° Northeast 261 300 10,500 -1,320 Descending Atlanta Center
05:02PM 32.1142 -86.0594 23° Northeast 266 306 8,400 -1,920 Descending Atlanta Center
05:03PM 32.1897 -86.0292 19° North 276 318 6,700 -1,200 Descending Atlanta Center
05:04PM 32.2697 -85.9892 23° Northeast 276 318 6,000 -720 Descending Atlanta Center
05:10PM 32.3709 -85.9312 23° Northeast  Level FlightAware Approximate
05:17PM 32.5000 -85.8667 29° Northeast  Level FlightAware Approximate
05:18PM 32.5149 -85.8762 29° Northeast  Level Estimated